Time;durP1;ratioP1;P1;durP2;ratioP2;P2;SDS_P1;SDS_P2;PMS_P1;PMS_P2;Temp;Humidity;BMP_temperature;BMP_pressure;BME280_temperature;BME280_humidity;BME280_pressure;Samples;Min_cycle;Max_cycle;Signal;HPM_P1;HPM_P2
2022/08/12 00:44:41;;;;;;;1.50;1.30;;;;;;;21.34;43.45;98799.72;4984947;28;104631;-59
2022/08/12 00:47:11;;;;;;;1.95;1.80;;;;;;;21.26;44.21;98797.91;4975332;28;104500;-59
2022/08/12 00:49:55;;;;;;;2.70;2.07;;;;;;;20.57;45.55;98790.59;4969745;28;103004;-59
2022/08/12 00:52:23;;;;;;;2.30;1.95;;;;;;;20.72;45.72;98791.56;4965503;28;102777;-59
2022/08/12 00:54:55;;;;;;;2.30;2.10;;;;;;;20.93;45.34;98795.50;4983622;28;103275;-59
2022/08/12 00:57:27;;;;;;;3.30;2.00;;;;;;;20.75;45.41;98787.69;4975420;28;103231;-59
2022/08/12 00:59:57;;;;;;;2.70;1.88;;;;;;;20.67;45.22;98790.41;4978577;28;102939;-65
2022/08/12 01:02:28;;;;;;;1.73;1.63;;;;;;;20.93;44.60;98791.00;4982464;28;102832;-64
2022/08/12 01:13:24;;;;;;;2.90;2.33;;;;;;;19.59;48.58;98790.78;4983874;28;102614;-64
2022/08/12 01:15:54;;;;;;;3.65;2.10;;;;;;;19.99;48.69;98792.63;4979613;28;103361;-64
2022/08/12 01:18:25;;;;;;;2.00;1.80;;;;;;;20.32;47.57;98796.19;4978550;28;103085;-65
2022/08/12 01:21:10;;;;;;;2.20;1.90;;;;;;;19.98;47.87;98794.50;4988328;28;102716;-64
2022/08/12 01:24:16;;;;;;;3.45;2.40;;;;;;;19.53;47.91;98786.94;4987060;28;102773;-64
2022/08/12 01:27:02;;;;;;;2.20;2.00;;;;;;;19.68;47.47;98787.94;4942260;28;103784;-64
2022/08/12 01:29:41;;;;;;;2.08;1.70;;;;;;;20.05;46.64;98790.13;4973166;28;103182;-64
2022/08/12 01:32:13;;;;;;;2.88;2.40;;;;;;;19.84;47.08;98792.50;4988345;28;102539;-64
2022/08/12 01:34:46;;;;;;;3.27;2.30;;;;;;;19.39;47.93;98792.09;4973799;28;102946;-64
2022/08/12 01:37:19;;;;;;;3.22;2.75;;;;;;;19.70;48.02;98785.13;4984973;28;103277;-63
2022/08/12 01:39:52;;;;;;;4.15;2.83;;;;;;;19.99;47.01;98790.81;4984812;28;103185;-64
2022/08/12 01:42:46;;;;;;;9.13;4.55;;;;;;;18.98;49.26;98777.69;4974170;28;102900;-64
2022/08/12 01:45:16;;;;;;;4.57;3.88;;;;;;;18.70;50.20;98785.09;4987664;28;102720;-63
2022/08/12 01:48:05;;;;;;;2.80;2.43;;;;;;;19.10;49.34;98787.13;4984539;28;103777;-64
2022/08/12 01:50:46;;;;;;;4.68;2.42;;;;;;;19.34;48.88;98775.66;4979258;28;103201;-64
2022/08/12 01:53:19;;;;;;;2.38;2.17;;;;;;;19.69;47.98;98780.75;4977530;28;102787;-63
2022/08/12 01:55:49;;;;;;;1.83;1.73;;;;;;;19.82;47.90;98774.91;4981030;28;103486;-64
2022/08/12 01:58:28;;;;;;;2.70;2.00;;;;;;;19.88;48.67;98769.69;4991096;28;103323;-64
2022/08/12 02:01:02;;;;;;;2.85;2.33;;;;;;;19.79;48.66;98768.00;4982570;28;103064;-64
2022/08/12 02:12:42;;;;;;;1.80;1.70;;;;;;;19.96;48.27;98775.03;4980806;28;103261;-64
2022/08/12 02:15:27;;;;;;;2.83;2.40;;;;;;;19.72;49.52;98783.09;4983042;28;102977;-64
2022/08/12 02:18:04;;;;;;;1.80;1.70;;;;;;;19.92;48.29;98779.09;4988594;28;103961;-64
2022/08/12 02:20:38;;;;;;;2.35;1.80;;;;;;;19.95;48.50;98778.75;4987554;28;103291;-64
2022/08/12 02:23:26;;;;;;;1.70;1.60;;;;;;;19.99;48.21;98785.44;4981581;28;103454;-64
2022/08/12 02:25:58;;;;;;;2.20;2.00;;;;;;;19.68;49.81;98771.03;4987066;28;103186;-64
2022/08/12 02:28:29;;;;;;;2.30;2.10;;;;;;;19.24;50.11;98772.25;4983193;28;102643;-64
2022/08/12 02:31:03;;;;;;;1.73;1.63;;;;;;;19.64;48.92;98770.53;4986128;28;103911;-64
2022/08/12 02:33:32;;;;;;;1.70;1.60;;;;;;;19.73;48.65;98773.22;4980565;28;103195;-64
2022/08/12 02:36:01;;;;;;;2.30;2.10;;;;;;;19.66;50.11;98773.88;4979152;28;102981;-63
2022/08/12 02:38:30;;;;;;;2.20;2.00;;;;;;;19.21;50.18;98777.94;4987167;28;102951;-64
2022/08/12 02:41:01;;;;;;;3.70;2.30;;;;;;;19.08;50.40;98779.25;4988853;28;104002;-64
2022/08/12 02:43:36;;;;;;;3.10;2.47;;;;;;;19.00;50.78;98771.19;4984603;28;103175;-64
2022/08/12 02:46:08;;;;;;;2.97;2.42;;;;;;;19.32;49.79;98766.91;4985083;28;103259;-64
2022/08/12 02:48:47;;;;;;;3.38;2.40;;;;;;;18.38;52.06;98766.19;4980068;28;102662;-64
2022/08/12 02:51:23;;;;;;;2.17;1.98;;;;;;;18.72;50.98;98764.41;4970774;28;104345;-64
2022/08/12 02:53:51;;;;;;;1.98;1.88;;;;;;;19.01;50.57;98769.34;4985981;28;103221;-63
2022/08/12 02:56:32;;;;;;;1.87;1.70;;;;;;;19.36;49.84;98765.59;4981601;28;102949;-64
2022/08/12 02:59:01;;;;;;;3.70;2.80;;;;;;;19.45;50.11;98764.66;4993303;28;102803;-64
2022/08/12 03:01:34;;;;;;;5.10;2.50;;;;;;;19.31;50.48;98768.75;4989760;28;104026;-64
2022/08/12 03:04:05;;;;;;;3.33;2.50;;;;;;;18.64;51.73;98769.69;4983386;28;103286;-64
2022/08/12 03:06:48;;;;;;;4.10;2.50;;;;;;;18.64;51.75;98769.69;4986413;28;102660;-64
2022/08/12 03:09:17;;;;;;;3.00;2.17;;;;;;;18.48;52.23;98770.44;4982085;28;102671;-63
2022/08/12 03:11:52;;;;;;;3.60;2.30;;;;;;;18.42;52.74;98770.19;4981345;28;104180;-63
2022/08/12 03:14:25;;;;;;;3.17;2.42;;;;;;;18.19;53.12;98758.38;4980233;28;103181;-63
2022/08/12 03:17:08;;;;;;;2.70;2.33;;;;;;;17.99;53.71;98762.25;4981147;28;102941;-64
2022/08/12 03:19:38;;;;;;;3.97;2.10;;;;;;;18.49;52.43;98766.78;4987613;28;103576;-64
2022/08/12 03:22:26;;;;;;;2.35;2.10;;;;;;;18.54;52.44;98766.31;4989346;28;103283;-63
2022/08/12 03:25:00;;;;;;;2.22;2.00;;;;;;;18.54;52.83;98768.97;4982619;28;103184;-63
2022/08/12 03:27:30;;;;;;;3.40;2.30;;;;;;;17.78;54.87;98774.09;4979871;28;102841;-63
2022/08/12 03:30:00;;;;;;;3.25;2.42;;;;;;;18.31;53.63;98773.16;4980481;28;103306;-63
2022/08/12 03:32:36;;;;;;;2.23;2.10;;;;;;;18.46;53.45;98769.75;4979899;28;103974;-64
2022/08/12 03:35:06;;;;;;;2.60;2.40;;;;;;;18.29;53.78;98764.44;4982631;28;102639;-63
2022/08/12 03:37:37;;;;;;;4.05;2.50;;;;;;;17.89;55.09;98775.69;4981414;28;102701;-63
2022/08/12 03:40:07;;;;;;;2.40;2.20;;;;;;;18.15;54.18;98763.19;4979068;28;103861;-63
2022/08/12 03:42:40;;;;;;;2.42;2.05;;;;;;;18.45;53.31;98764.53;4985218;28;103361;-63
2022/08/12 04:02:14;;;;;;;2.70;2.10;;;;;;;18.71;53.29;98775.25;4978859;28;103182;-69
2022/08/12 04:04:45;;;;;;;3.88;2.78;;;;;;;18.73;53.45;98774.09;4977629;28;103338;-69
2022/08/12 04:07:16;;;;;;;3.75;2.97;;;;;;;17.96;55.85;98779.44;4970234;28;103884;-68
2022/08/12 04:09:46;;;;;;;2.30;2.10;;;;;;;18.42;54.26;98775.56;4981463;28;103178;-68
2022/08/12 04:15:03;;;;;;;2.92;2.60;;;;;;;17.28;58.04;98788.94;4981815;28;103257;-69
2022/08/12 04:17:32;;;;;;;3.30;2.50;;;;;;;17.57;56.93;98784.25;4975293;28;104378;-69
2022/08/12 04:20:01;;;;;;;2.42;2.25;;;;;;;18.11;55.64;98777.00;4983841;28;103128;-68
2022/08/12 04:22:32;;;;;;;3.33;2.87;;;;;;;16.89;59.36;98777.66;4975935;28;102875;-68
2022/08/12 04:25:02;;;;;;;2.88;2.58;;;;;;;17.53;57.26;98774.00;4983405;28;103335;-65
2022/08/12 04:27:32;;;;;;;2.40;2.20;;;;;;;17.82;56.45;98778.13;4982808;28;103242;-64
2022/08/12 04:30:00;;;;;;;2.10;1.90;;;;;;;18.13;55.22;98775.91;4973799;28;103814;-64
2022/08/12 04:32:50;;;;;;;2.20;1.93;;;;;;;18.35;54.21;98769.19;4981701;28;104497;-64
2022/08/12 04:35:22;;;;;;;2.10;1.90;;;;;;;18.42;53.62;98779.06;4979689;28;104460;-64
2022/08/12 04:37:54;;;;;;;2.27;2.10;;;;;;;18.47;53.95;98781.25;4981258;28;102984;-64
2022/08/12 04:40:31;;;;;;;4.07;2.60;;;;;;;17.43;58.33;98790.13;4977805;28;102642;-64
2022/08/12 04:43:00;;;;;;;3.17;2.83;;;;;;;17.15;59.64;98785.81;4975027;28;102784;-63
2022/08/12 04:45:29;;;;;;;2.55;2.30;;;;;;;17.70;57.21;98784.72;4975565;28;103247;-64
2022/08/12 04:47:57;;;;;;;2.38;2.17;;;;;;;17.91;56.65;98787.91;4978678;28;103495;-64
2022/08/12 04:50:28;;;;;;;3.03;2.60;;;;;;;18.09;56.29;98784.38;4982849;28;102721;-64
2022/08/12 04:53:05;;;;;;;2.50;2.00;;;;;;;18.12;55.95;98778.72;4976841;28;102738;-64
2022/08/12 04:55:34;;;;;;;1.98;1.88;;;;;;;18.37;54.13;98793.91;4975521;28;104138;-64
2022/08/12 04:58:02;;;;;;;2.17;1.90;;;;;;;18.50;54.77;98786.34;4979256;28;103246;-64
2022/08/12 05:00:30;;;;;;;2.70;2.30;;;;;;;18.52;55.65;98787.88;4974727;28;102612;-64
2022/08/12 05:02:58;;;;;;;2.80;2.60;;;;;;;18.37;57.07;98783.22;4967407;28;104790;-64
2022/08/12 05:05:28;;;;;;;4.43;2.80;;;;;;;17.84;58.68;98786.84;4979750;28;103918;-64
2022/08/12 05:08:05;;;;;;;2.97;2.50;;;;;;;17.12;60.23;98794.13;4975197;28;103281;-63
2022/08/12 05:10:33;;;;;;;3.83;2.97;;;;;;;16.96;61.48;98788.56;4974691;28;102741;-62
2022/08/12 05:13:05;;;;;;;3.63;2.73;;;;;;;17.05;60.94;98785.84;4975935;28;104269;-63
2022/08/12 05:15:34;;;;;;;3.25;2.60;;;;;;;17.27;60.81;98797.94;4977795;28;103269;-63
2022/08/12 05:18:04;;;;;;;3.35;2.50;;;;;;;17.44;59.66;98796.28;4972004;28;103271;-63
2022/08/12 05:20:51;;;;;;;3.73;2.70;;;;;;;17.75;59.13;98798.47;4975397;28;102807;-63
2022/08/12 05:23:21;;;;;;;4.70;2.75;;;;;;;17.83;58.58;98793.19;4980873;28;102727;-63
2022/08/12 05:25:50;;;;;;;2.78;2.50;;;;;;;18.03;57.51;98791.16;4976904;28;104528;-63
2022/08/12 05:28:18;;;;;;;3.55;2.63;;;;;;;18.12;57.15;98794.75;4974788;28;103240;-63
2022/08/12 05:30:47;;;;;;;2.47;2.28;;;;;;;18.28;56.42;98800.19;4974117;28;102738;-63
2022/08/12 05:33:15;;;;;;;3.00;2.70;;;;;;;18.39;55.80;98803.47;4976781;28;103962;-62
2022/08/12 05:35:46;;;;;;;2.60;2.40;;;;;;;18.80;55.45;98796.53;4976627;28;104049;-62
2022/08/12 05:41:17;;;;;;;3.58;2.67;;;;;;;18.86;56.25;98806.59;4973718;28;102745;-63
2022/08/12 05:43:47;;;;;;;2.47;2.20;;;;;;;19.29;53.87;98807.41;4972773;28;103131;-63
2022/08/12 05:46:18;;;;;;;2.80;2.40;;;;;;;19.31;53.35;98810.78;4969287;28;103305;-62
2022/08/12 05:48:46;;;;;;;3.90;2.40;;;;;;;19.55;53.38;98818.91;4975037;28;103181;-62
2022/08/12 05:51:14;;;;;;;4.07;2.03;;;;;;;19.77;52.50;98818.28;4974791;28;102824;-63
2022/08/12 05:53:44;;;;;;;1.70;1.60;;;;;;;20.07;52.00;98825.66;4968903;28;103151;-62
2022/08/12 05:56:19;;;;;;;2.80;2.20;;;;;;;20.16;51.69;98824.66;4968702;28;104134;-63
2022/08/12 05:58:50;;;;;;;2.53;2.33;;;;;;;20.15;51.08;98831.00;4973526;28;103151;-62
2022/08/12 06:01:18;;;;;;;3.80;2.63;;;;;;;19.87;52.04;98828.84;4982091;28;102608;-62
2022/08/12 06:04:07;;;;;;;2.83;2.50;;;;;;;20.04;51.41;98836.72;4980714;28;102793;-64
2022/08/12 06:06:37;;;;;;;2.10;1.90;;;;;;;20.38;50.21;98825.03;4980194;28;103385;-63
2022/08/12 06:09:11;;;;;;;2.30;2.10;;;;;;;20.60;51.99;98821.63;4988386;28;103632;-64
2022/08/12 06:11:41;;;;;;;2.97;2.60;;;;;;;19.92;51.11;98823.81;4987309;28;102904;-64
2022/08/12 06:14:31;;;;;;;2.40;2.17;;;;;;;20.26;50.41;98829.91;4974236;28;102641;-63
2022/08/12 06:16:59;;;;;;;3.20;2.20;;;;;;;20.07;50.88;98831.03;4977024;28;103900;-63
2022/08/12 06:19:30;;;;;;;2.23;1.90;;;;;;;20.74;50.33;98823.63;4983828;28;102880;-64
2022/08/12 06:22:18;;;;;;;3.67;2.60;;;;;;;20.35;51.61;98834.22;4971235;28;102753;-63
2022/08/12 06:24:48;;;;;;;5.50;2.63;;;;;;;20.45;50.23;98834.91;4982371;28;103024;-63
2022/08/12 06:27:17;;;;;;;3.37;2.37;;;;;;;20.15;51.90;98832.88;4977924;28;104003;-63
2022/08/12 06:29:46;;;;;;;3.40;2.50;;;;;;;19.96;51.95;98834.03;4973266;28;103176;-63
2022/08/12 06:32:33;;;;;;;2.87;2.17;;;;;;;20.46;50.40;98836.59;4972754;28;102839;-64
2022/08/12 06:35:02;;;;;;;2.83;2.10;;;;;;;20.96;49.45;98825.56;4973420;28;103113;-64
2022/08/12 06:37:54;;;;;;;3.78;2.50;;;;;;;21.18;49.23;98835.56;4974274;28;103355;-66
2022/08/12 06:43:13;;;;;;;2.30;2.00;;;;;;;21.27;49.49;98826.47;4972556;28;102670;-64
2022/08/12 06:45:48;;;;;;;2.42;2.03;;;;;;;21.14;49.80;98826.16;4972243;28;102628;-64
2022/08/12 06:48:16;;;;;;;3.53;2.47;;;;;;;20.83;50.12;98825.25;4976722;28;103822;-64
2022/08/12 06:50:44;;;;;;;5.03;2.63;;;;;;;20.63;50.95;98821.28;4974530;28;103227;-64
2022/08/12 06:53:12;;;;;;;5.80;2.47;;;;;;;20.59;51.31;98825.31;4973021;28;103083;-64
2022/08/12 06:55:42;;;;;;;4.07;2.40;;;;;;;21.42;48.48;98818.47;4973795;28;104144;-64
2022/08/12 06:58:25;;;;;;;4.13;2.67;;;;;;;21.84;48.24;98824.25;4978828;28;103373;-60
2022/08/12 07:00:54;;;;;;;5.70;2.70;;;;;;;21.47;47.74;98831.41;4980225;28;103222;-60
2022/08/12 07:03:26;;;;;;;4.87;2.83;;;;;;;20.92;49.19;98820.69;4980496;28;102969;-60
2022/08/12 07:05:56;;;;;;;2.00;1.90;;;;;;;21.88;48.24;98825.63;4982118;28;102854;-60
2022/08/12 07:08:27;;;;;;;3.17;2.60;;;;;;;21.93;47.98;98827.75;4977309;28;103249;-60
2022/08/12 07:10:58;;;;;;;6.07;2.58;;;;;;;21.52;48.70;98831.69;4980839;28;103283;-60
2022/08/12 07:13:29;;;;;;;3.60;2.20;;;;;;;21.99;48.14;98835.09;4980012;28;103994;-60
2022/08/12 07:15:58;;;;;;;4.72;2.47;;;;;;;22.19;47.31;98822.00;4981119;28;102789;-60
2022/08/12 07:18:31;;;;;;;2.40;2.20;;;;;;;22.65;47.11;98822.78;4968074;28;103099;-61
2022/08/12 07:21:02;;;;;;;4.27;2.40;;;;;;;22.14;47.95;98819.88;4973307;28;102984;-61
2022/08/12 07:23:32;;;;;;;2.50;2.30;;;;;;;22.38;47.84;98832.25;4973150;28;102889;-61
2022/08/12 07:26:02;;;;;;;3.10;2.80;;;;;;;22.63;46.42;98819.38;4978866;28;104032;-61
2022/08/12 07:28:33;;;;;;;2.65;2.45;;;;;;;23.28;45.51;98819.50;4976859;28;104151;-61
2022/08/12 07:31:06;;;;;;;4.40;2.60;;;;;;;23.11;45.74;98824.25;4980940;28;103256;-60
2022/08/12 07:33:37;;;;;;;4.03;2.80;;;;;;;22.37;46.02;98826.03;4969125;28;102709;-61
2022/08/12 07:36:10;;;;;;;4.78;2.30;;;;;;;22.63;46.11;98817.53;4974019;28;103259;-60
2022/08/12 07:38:42;;;;;;;4.90;2.50;;;;;;;23.09;45.24;98818.22;4977099;28;103255;-60
2022/08/12 07:41:15;;;;;;;5.13;2.38;;;;;;;23.00;44.74;98811.25;4983638;28;103579;-60
2022/08/12 07:43:45;;;;;;;4.50;2.10;;;;;;;23.99;43.65;98818.66;4971152;28;102754;-60
2022/08/12 07:46:15;;;;;;;4.70;2.50;;;;;;;23.72;42.86;98817.56;4976290;28;103173;-60
2022/08/12 07:48:45;;;;;;;3.90;2.35;;;;;;;24.36;42.97;98814.88;4980869;28;103342;-61
2022/08/12 07:51:13;;;;;;;4.05;2.15;;;;;;;25.00;41.36;98812.84;4981184;28;103187;-61
2022/08/12 07:53:54;;;;;;;2.25;2.05;;;;;;;25.58;41.32;98812.28;4975913;28;103155;-61
2022/08/12 07:56:31;;;;;;;5.25;2.10;;;;;;;26.09;39.43;98809.06;4981305;28;103195;-61
2022/08/12 07:59:01;;;;;;;2.63;1.90;;;;;;;26.56;39.13;98806.16;4973661;28;105378;-61
2022/08/12 08:01:31;;;;;;;3.10;1.85;;;;;;;26.49;38.66;98811.63;4977995;28;103303;-61
2022/08/12 08:06:47;;;;;;;2.13;1.92;;;;;;;26.66;37.71;98795.75;4979301;28;102835;-64
2022/08/12 08:09:20;;;;;;;4.10;2.10;;;;;;;26.96;36.97;98796.97;4972905;28;103248;-61
2022/08/12 08:14:46;;;;;;;3.67;2.17;;;;;;;27.90;35.62;98789.00;4977950;28;102990;-62
2022/08/12 08:17:17;;;;;;;3.63;1.92;;;;;;;28.07;34.91;98787.47;4983029;28;102644;-62
2022/08/12 08:19:51;;;;;;;2.63;1.80;;;;;;;28.61;34.09;98789.50;4981446;28;103795;-68
2022/08/12 08:22:31;;;;;;;3.80;2.00;;;;;;;29.23;34.13;98780.31;4975245;28;103021;-68
2022/08/12 08:25:17;;;;;;;3.53;1.80;;;;;;;29.10;34.81;98780.44;4976962;28;102894;-68
2022/08/12 08:28:07;;;;;;;2.17;1.97;;;;;;;29.21;33.78;98782.41;4982089;28;103964;-69
2022/08/12 08:30:38;;;;;;;3.17;2.00;;;;;;;29.40;34.14;98785.13;4971044;28;104813;-69
2022/08/12 08:33:09;;;;;;;4.78;2.00;;;;;;;29.78;32.85;98789.19;4973869;28;104259;-69
2022/08/12 08:35:51;;;;;;;2.83;1.98;;;;;;;29.77;33.34;98793.00;4981896;28;103706;-69
2022/08/12 08:38:21;;;;;;;3.00;1.87;;;;;;;30.01;34.20;98790.38;4973392;28;102903;-69
2022/08/12 08:44:10;;;;;;;2.95;1.90;;;;;;;30.65;33.02;98786.81;4979195;28;102979;-70
2022/08/12 08:46:43;;;;;;;3.00;2.00;;;;;;;29.74;31.80;98781.72;4987970;28;102928;-70
2022/08/12 08:49:13;;;;;;;3.72;1.98;;;;;;;30.86;33.40;98778.00;4982947;28;102696;-70
2022/08/12 08:51:42;;;;;;;2.67;1.88;;;;;;;31.02;31.81;98772.69;4972281;28;103303;-69
2022/08/12 08:54:10;;;;;;;2.50;1.90;;;;;;;30.85;30.62;98776.38;4981263;28;103216;-70
2022/08/12 08:56:42;;;;;;;2.67;1.90;;;;;;;30.60;30.08;98782.06;4971283;28;102800;-64
2022/08/12 08:59:13;;;;;;;4.05;1.83;;;;;;;30.53;30.56;98775.91;4977008;28;103013;-64
2022/08/12 09:01:41;;;;;;;3.00;2.15;;;;;;;29.09;31.39;98773.34;4975443;28;104219;-64
2022/08/12 09:04:11;;;;;;;2.65;2.00;;;;;;;29.86;32.46;98769.88;4978827;28;103222;-64
2022/08/12 09:07:01;;;;;;;3.75;2.15;;;;;;;29.68;31.92;98772.59;4971529;28;103187;-64
2022/08/12 09:09:50;;;;;;;2.80;1.70;;;;;;;30.77;31.93;98765.81;4976963;28;102758;-64
2022/08/12 09:15:46;;;;;;;3.13;1.98;;;;;;;30.64;31.17;98768.78;4971920;28;103094;-64
2022/08/12 09:18:26;;;;;;;4.10;1.73;;;;;;;30.09;31.54;98758.16;4977314;28;102839;-64
2022/08/12 09:21:02;;;;;;;3.83;1.88;;;;;;;31.48;30.97;98760.00;4973146;28;103215;-64
2022/08/12 09:23:33;;;;;;;4.75;2.00;;;;;;;31.58;29.90;98750.09;4974600;28;103638;-64
2022/08/12 09:26:21;;;;;;;3.97;1.80;;;;;;;30.32;29.54;98758.19;4973556;28;103267;-65
2022/08/12 09:28:56;;;;;;;4.00;1.70;;;;;;;31.42;29.67;98748.13;4980028;28;103817;-65
2022/08/12 09:31:26;;;;;;;2.85;1.90;;;;;;;31.27;28.77;98750.53;4973908;28;102840;-65
2022/08/12 09:34:15;;;;;;;3.75;1.85;;;;;;;31.33;28.84;98748.75;4979923;28;103296;-65
2022/08/12 09:37:01;;;;;;;2.80;2.10;;;;;;;31.80;28.53;98743.97;4979327;28;103111;-65
2022/08/12 09:39:52;;;;;;;2.42;1.60;;;;;;;32.03;27.25;98746.56;4978204;28;103948;-65
2022/08/12 09:45:48;;;;;;;2.38;1.73;;;;;;;33.01;28.27;98737.69;4977147;28;103302;-65
2022/08/12 09:48:37;;;;;;;2.10;1.80;;;;;;;31.62;27.82;98735.97;4980927;28;103238;-65
2022/08/12 09:51:07;;;;;;;2.22;1.40;;;;;;;32.60;26.97;98723.47;4975893;28;102899;-65
2022/08/12 09:53:50;;;;;;;2.67;1.67;;;;;;;32.46;27.48;98724.88;4964283;28;102655;-65
2022/08/12 09:56:38;;;;;;;3.25;1.73;;;;;;;32.13;26.89;98711.22;4977605;28;104107;-70
2022/08/12 09:59:26;;;;;;;3.05;1.50;;;;;;;30.22;27.23;98729.88;4973822;28;103297;-70
2022/08/12 10:02:15;;;;;;;2.40;1.60;;;;;;;32.16;26.47;98724.41;4973892;28;102921;-71
2022/08/12 10:05:05;;;;;;;3.00;1.50;;;;;;;32.21;27.86;98720.91;4966788;28;102755;-71
2022/08/12 10:07:40;;;;;;;3.05;1.90;;;;;;;31.50;27.11;98717.75;4961944;28;103926;-70
2022/08/12 10:10:11;;;;;;;3.03;1.58;;;;;;;31.71;26.93;98716.22;4982539;28;103454;-66
2022/08/12 10:16:02;;;;;;;3.90;1.70;;;;;;;31.01;27.29;98691.09;4962318;28;102851;-65
2022/08/12 10:18:33;;;;;;;4.50;1.93;;;;;;;32.63;27.16;98695.63;4978512;28;103238;-71
2022/08/12 10:21:07;;;;;;;1.70;1.42;;;;;;;33.52;27.61;98698.06;4974251;28;103164;-71
2022/08/12 10:23:35;;;;;;;3.10;1.48;;;;;;;32.40;26.28;98695.78;4974533;28;102772;-71
2022/08/12 10:32:19;;;;;;;2.53;1.50;;;;;;;29.35;29.28;98687.03;4978359;28;103078;-70
2022/08/12 10:35:08;;;;;;;2.90;1.30;;;;;;;30.89;28.09;98682.09;4978916;28;102629;-65
2022/08/12 10:37:38;;;;;;;1.92;1.40;;;;;;;31.06;27.17;98685.75;4988820;28;103097;-65
2022/08/12 10:40:26;;;;;;;3.72;1.70;;;;;;;31.63;27.08;98678.41;4981206;28;104010;-66
2022/08/12 10:45:47;;;;;;;3.40;1.47;;;;;;;32.89;27.52;98672.16;4971380;28;103233;-65
2022/08/12 10:48:19;;;;;;;1.98;1.38;;;;;;;32.99;26.35;98669.53;4987110;28;104125;-66
2022/08/12 10:51:02;;;;;;;2.03;1.52;;;;;;;32.97;25.91;98673.63;4976179;28;102772;-66
2022/08/12 10:53:55;;;;;;;2.97;1.67;;;;;;;32.90;26.26;98667.53;4984093;28;103391;-66
2022/08/12 10:56:31;;;;;;;2.13;1.40;;;;;;;31.26;27.08;98672.50;4982983;28;102733;-66
2022/08/12 10:59:03;;;;;;;2.75;1.70;;;;;;;28.47;29.57;98682.00;4987437;28;102787;-66
2022/08/12 11:01:33;;;;;;;1.87;1.70;;;;;;;28.01;29.56;98673.47;4978233;28;103033;-66
2022/08/12 11:04:21;;;;;;;1.95;1.50;;;;;;;28.19;29.38;98668.94;4968539;28;103305;-65
2022/08/12 11:07:09;;;;;;;1.52;1.40;;;;;;;30.01;27.91;98660.47;4977297;28;102852;-65
2022/08/12 11:09:59;;;;;;;3.10;1.40;;;;;;;31.06;26.06;98650.28;4975530;28;103183;-65
2022/08/12 11:12:30;;;;;;;3.03;1.53;;;;;;;29.62;27.74;98650.19;4981831;28;103359;-65
2022/08/12 11:15:22;;;;;;;3.23;1.67;;;;;;;30.34;27.80;98662.59;4975120;28;103252;-71
2022/08/12 11:18:10;;;;;;;2.50;1.50;;;;;;;30.68;28.33;98644.56;4975605;28;102876;-71
2022/08/12 11:20:47;;;;;;;3.10;1.40;;;;;;;31.70;25.65;98650.91;4983065;28;102841;-65
2022/08/12 11:23:16;;;;;;;2.45;1.45;;;;;;;32.47;25.18;98641.78;4977917;28;103356;-71
2022/08/12 11:26:06;;;;;;;2.50;1.38;;;;;;;32.15;26.27;98646.22;4979900;28;103207;-71
2022/08/12 11:28:36;;;;;;;1.40;1.30;;;;;;;32.50;25.17;98646.75;4973767;28;102735;-71
2022/08/12 11:31:07;;;;;;;1.60;1.40;;;;;;;32.84;25.17;98633.81;4966262;28;103453;-71
2022/08/12 11:33:43;;;;;;;2.87;1.50;;;;;;;32.87;24.46;98633.28;4985463;28;103407;-71
2022/08/12 11:36:31;;;;;;;2.00;1.40;;;;;;;32.68;24.08;98640.97;4982266;28;103173;-71
2022/08/12 11:39:06;;;;;;;1.67;1.50;;;;;;;33.15;24.65;98643.22;4965637;28;103029;-71
2022/08/12 11:41:40;;;;;;;3.42;1.73;;;;;;;32.91;25.56;98636.34;4974992;28;102760;-71
2022/08/12 11:44:09;;;;;;;2.37;1.50;;;;;;;33.50;24.32;98635.34;4975576;28;103236;-66
2022/08/12 11:46:57;;;;;;;1.80;1.37;;;;;;;33.99;24.65;98627.03;4978088;28;103203;-66
2022/08/12 11:49:27;;;;;;;1.50;1.40;;;;;;;33.22;24.44;98617.28;4976141;28;102776;-66
2022/08/12 11:52:03;;;;;;;3.97;1.27;;;;;;;32.58;24.47;98621.72;4981833;28;103818;-66
2022/08/12 11:54:51;;;;;;;1.60;1.30;;;;;;;33.59;24.67;98617.41;4980193;28;103934;-66
2022/08/12 11:57:22;;;;;;;3.22;1.65;;;;;;;33.72;23.97;98625.16;4980006;28;104015;-66
2022/08/12 12:00:11;;;;;;;1.90;1.30;;;;;;;32.92;24.95;98627.06;4969735;28;102743;-72
2022/08/12 12:02:59;;;;;;;3.05;1.27;;;;;;;31.20;25.69;98610.72;4986498;28;104572;-71
2022/08/12 12:05:27;;;;;;;2.33;1.50;;;;;;;33.13;24.90;98596.94;4980075;28;104070;-72
2022/08/12 12:08:20;;;;;;;1.85;1.42;;;;;;;33.59;24.39;98602.88;4976290;28;103813;-72
2022/08/12 12:11:08;;;;;;;4.88;1.40;;;;;;;33.31;24.98;98606.69;4978539;28;103049;-66
2022/08/12 12:13:40;;;;;;;2.13;1.58;;;;;;;33.29;24.26;98613.53;4968259;28;102707;-66
2022/08/12 12:16:28;;;;;;;3.92;1.45;;;;;;;33.86;24.25;98597.31;4985089;28;103964;-71
2022/08/12 12:18:56;;;;;;;2.63;1.50;;;;;;;33.76;24.02;98601.66;4975116;28;103208;-66
2022/08/12 12:21:24;;;;;;;3.88;1.60;;;;;;;33.76;23.75;98601.66;4973311;28;102696;-65
2022/08/12 12:24:12;;;;;;;2.35;1.50;;;;;;;33.25;25.02;98600.34;4981859;28;103272;-70
2022/08/12 12:26:48;;;;;;;2.60;1.40;;;;;;;31.97;25.83;98600.84;4980155;28;104096;-71
2022/08/12 12:29:29;;;;;;;2.00;1.40;;;;;;;30.07;27.32;98596.88;4979697;28;103419;-71
2022/08/12 12:32:18;;;;;;;1.55;1.45;;;;;;;31.12;27.60;98600.22;4977563;28;102889;-71
2022/08/12 12:34:56;;;;;;;2.17;1.50;;;;;;;30.74;27.22;98602.69;4978043;28;104347;-71
2022/08/12 12:37:52;;;;;;;2.40;1.40;;;;;;;29.43;28.23;98608.63;4980113;28;103098;-70
2022/08/12 12:40:35;;;;;;;1.55;1.40;;;;;;;30.12;28.17;98605.16;4975054;28;103211;-70
2022/08/12 12:43:07;;;;;;;2.17;1.58;;;;;;;32.50;26.77;98586.59;4970672;28;103553;-70
2022/08/12 12:45:38;;;;;;;2.72;1.52;;;;;;;33.06;25.88;98593.59;4975159;28;104191;-70
2022/08/12 12:48:12;;;;;;;3.00;1.50;;;;;;;32.95;25.03;98596.44;4973500;28;103787;-70
2022/08/12 12:50:41;;;;;;;3.03;1.40;;;;;;;32.24;25.91;98597.44;4977560;28;103173;-70
2022/08/12 12:53:20;;;;;;;1.60;1.38;;;;;;;33.23;25.32;98590.75;4979766;28;102735;-70
2022/08/12 12:56:14;;;;;;;2.30;1.30;;;;;;;32.14;26.38;98587.19;4977384;28;102888;-70
2022/08/12 12:58:42;;;;;;;5.93;1.60;;;;;;;30.33;28.24;98580.03;4970754;28;103965;-70
2022/08/12 13:01:12;;;;;;;3.25;1.63;;;;;;;29.66;28.40;98583.34;4976168;28;102959;-70
2022/08/12 13:03:56;;;;;;;2.80;1.50;;;;;;;30.15;27.53;98572.00;4975400;28;102775;-70
2022/08/12 13:06:30;;;;;;;3.25;1.60;;;;;;;30.12;28.58;98572.47;4977398;28;103154;-70
2022/08/12 13:09:00;;;;;;;2.63;1.58;;;;;;;29.86;28.00;98568.38;4975937;28;103191;-70
2022/08/12 13:11:31;;;;;;;3.40;1.50;;;;;;;29.79;28.38;98566.78;4972808;28;103256;-70
2022/08/12 13:14:12;;;;;;;1.70;1.50;;;;;;;31.82;26.60;98572.47;4964438;28;103759;-70
2022/08/12 13:17:00;;;;;;;2.10;1.35;;;;;;;32.66;25.58;98584.88;4972508;28;102778;-70
2022/08/12 13:19:30;;;;;;;1.77;1.37;;;;;;;32.78;26.38;98566.44;4981725;28;104054;-69
2022/08/12 13:22:20;;;;;;;3.17;1.40;;;;;;;32.94;25.59;98568.25;4974817;28;103183;-69
2022/08/12 13:24:53;;;;;;;1.67;1.58;;;;;;;32.33;26.19;98566.69;4977001;28;102690;-70
2022/08/12 13:27:28;;;;;;;1.60;1.48;;;;;;;31.80;26.72;98563.72;4981133;28;103921;-70
2022/08/12 13:30:06;;;;;;;5.10;1.77;;;;;;;32.58;26.29;98567.03;4978114;28;103305;-69
2022/08/12 13:32:41;;;;;;;2.37;1.50;;;;;;;30.41;26.55;98566.06;4976591;28;103261;-70
2022/08/12 13:35:10;;;;;;;1.77;1.48;;;;;;;31.07;27.64;98561.94;4970903;28;103030;-69
2022/08/12 13:37:58;;;;;;;1.85;1.50;;;;;;;31.46;25.95;98560.13;4980270;28;102790;-69
2022/08/12 13:40:32;;;;;;;2.90;1.42;;;;;;;30.34;26.47;98554.44;4979557;28;104042;-70
2022/08/12 13:43:01;;;;;;;1.42;1.33;;;;;;;32.30;26.26;98549.97;4983304;28;103188;-70
2022/08/12 13:45:33;;;;;;;2.17;1.30;;;;;;;32.17;26.49;98544.88;4976312;28;103180;-70
2022/08/12 13:48:05;;;;;;;1.70;1.60;;;;;;;30.29;26.90;98550.75;4967700;28;103835;-70
2022/08/12 13:50:36;;;;;;;2.67;1.33;;;;;;;31.42;27.34;98542.59;4977501;28;103760;-70
2022/08/12 13:53:10;;;;;;;2.97;1.30;;;;;;;30.14;27.54;98547.72;4980984;28;103443;-69
2022/08/12 13:55:53;;;;;;;4.05;1.50;;;;;;;30.42;27.49;98556.00;4986257;28;102865;-69